createdAt,value
2017-08-03T00:00:41.497Z,20.89
2017-08-03T00:03:07.344Z,20.90
2017-08-03T00:05:33.396Z,20.97
2017-08-03T00:07:59.295Z,20.99
2017-08-03T00:10:25.171Z,20.92
2017-08-03T00:12:50.988Z,20.99
2017-08-03T00:15:16.842Z,20.96
2017-08-03T00:17:42.792Z,20.66
2017-08-03T00:20:08.742Z,20.50
2017-08-03T00:22:34.631Z,20.42
2017-08-03T00:25:00.539Z,20.65
2017-08-03T00:27:26.443Z,20.79
2017-08-03T00:29:52.263Z,20.85
2017-08-03T00:32:18.113Z,20.87
2017-08-03T00:34:43.961Z,20.74
2017-08-03T00:37:09.821Z,20.80
2017-08-03T00:39:35.726Z,20.87
2017-08-03T00:42:01.589Z,20.89
2017-08-03T00:44:27.416Z,20.80
2017-08-03T00:46:53.271Z,20.85
2017-08-03T00:49:19.082Z,20.93
2017-08-03T00:51:44.942Z,20.99
2017-08-03T00:54:10.915Z,20.83
2017-08-03T00:56:36.743Z,21.06
2017-08-03T00:59:02.577Z,21.07
2017-08-03T01:01:28.441Z,21.11
2017-08-03T01:03:54.419Z,21.24
2017-08-03T01:06:20.360Z,21.42
2017-08-03T01:08:46.263Z,21.54
2017-08-03T01:11:12.085Z,21.41
2017-08-03T01:13:38.013Z,21.30
2017-08-03T01:16:03.876Z,21.33
2017-08-03T01:18:29.941Z,21.51
2017-08-03T01:20:55.964Z,21.60
2017-08-03T01:23:21.840Z,21.62
2017-08-03T01:25:47.747Z,21.84
2017-08-03T01:28:13.567Z,21.82
2017-08-03T01:30:39.407Z,21.85
2017-08-03T01:33:05.230Z,21.87
2017-08-03T01:35:31.092Z,22.09
2017-08-03T01:37:56.919Z,21.91
2017-08-03T01:40:22.845Z,21.99
2017-08-03T01:42:48.711Z,22.00
2017-08-03T01:45:14.599Z,22.05
2017-08-03T01:47:40.488Z,21.91
2017-08-03T01:50:06.385Z,21.88
2017-08-03T01:52:32.263Z,21.72
2017-08-03T01:54:58.173Z,21.83
2017-08-03T01:57:23.992Z,21.90
2017-08-03T01:59:49.887Z,21.85
2017-08-03T02:02:15.767Z,21.88
2017-08-03T02:04:41.636Z,21.92
2017-08-03T02:07:07.524Z,21.96
2017-08-03T02:09:33.391Z,22.02
2017-08-03T02:11:59.298Z,21.89
2017-08-03T02:14:25.183Z,21.98
2017-08-03T02:16:51.038Z,21.97
2017-08-03T02:19:16.987Z,22.03
2017-08-03T02:21:42.810Z,22.02
2017-08-03T02:24:08.698Z,21.90
2017-08-03T02:26:34.614Z,21.92
2017-08-03T02:29:00.527Z,22.00
2017-08-03T02:31:26.389Z,21.91
2017-08-03T02:33:52.271Z,21.99
2017-08-03T02:36:18.201Z,21.88
2017-08-03T02:38:44.179Z,21.94
2017-08-03T02:41:09.995Z,22.03
2017-08-03T02:43:35.847Z,21.99
2017-08-03T02:46:01.719Z,21.98
2017-08-03T02:48:27.600Z,21.97
2017-08-03T02:50:53.427Z,22.13
2017-08-03T02:53:19.308Z,22.43
2017-08-03T02:55:45.128Z,22.26
2017-08-03T02:58:11.023Z,22.33
2017-08-03T03:00:36.952Z,22.44
2017-08-03T03:03:02.780Z,22.61
2017-08-03T03:05:28.628Z,22.61
2017-08-03T03:07:54.659Z,22.47
2017-08-03T03:10:20.616Z,22.53
2017-08-03T03:12:46.484Z,22.54
2017-08-03T03:15:12.508Z,22.40
2017-08-03T03:17:38.364Z,22.52
2017-08-03T03:20:04.340Z,22.49
2017-08-03T03:22:30.208Z,22.45
2017-08-03T03:24:56.159Z,22.50
2017-08-03T03:27:22.019Z,22.48
2017-08-03T03:29:48.076Z,22.59
2017-08-03T03:32:14.003Z,22.67
2017-08-03T03:34:39.851Z,22.68
2017-08-03T03:37:05.682Z,22.79
2017-08-03T03:39:31.504Z,22.89
2017-08-03T03:41:57.355Z,22.93
2017-08-03T03:44:23.290Z,22.97
2017-08-03T03:46:49.976Z,22.92
2017-08-03T03:49:15.858Z,22.84
2017-08-03T03:51:41.766Z,22.72
2017-08-03T03:54:07.587Z,22.92
2017-08-03T03:56:33.443Z,23.26
2017-08-03T03:58:59.290Z,23.25
2017-08-03T04:01:25.301Z,23.18
2017-08-03T04:03:51.128Z,23.22
2017-08-03T04:06:16.909Z,23.18
2017-08-03T04:08:43.137Z,23.08
2017-08-03T04:11:08.943Z,23.19
2017-08-03T04:13:34.742Z,23.10
2017-08-03T04:16:00.652Z,23.12
2017-08-03T04:18:26.449Z,23.03
2017-08-03T04:20:52.238Z,22.97
2017-08-03T04:23:18.061Z,23.04
2017-08-03T04:25:43.865Z,23.07
2017-08-03T04:28:09.641Z,22.99
2017-08-03T04:30:35.472Z,23.05
2017-08-03T04:33:01.313Z,23.01
2017-08-03T04:35:27.142Z,22.98
2017-08-03T04:37:52.917Z,23.04
2017-08-03T04:40:18.726Z,23.04
2017-08-03T04:42:44.659Z,23.09
2017-08-03T04:45:10.557Z,23.20
2017-08-03T04:47:36.416Z,23.25
2017-08-03T04:50:02.389Z,23.28
2017-08-03T04:52:28.229Z,23.31
2017-08-03T04:54:54.082Z,23.41
2017-08-03T04:57:19.870Z,23.45
2017-08-03T04:59:45.682Z,23.43
2017-08-03T05:02:11.521Z,23.46
2017-08-03T05:04:37.408Z,23.56
2017-08-03T05:07:03.204Z,23.59
2017-08-03T05:09:29.037Z,23.58
2017-08-03T05:11:55.376Z,23.59
2017-08-03T05:14:21.193Z,23.60
2017-08-03T05:16:47.022Z,23.66
2017-08-03T05:19:12.846Z,23.63
2017-08-03T05:21:38.666Z,23.57
2017-08-03T05:24:05.091Z,23.39
2017-08-03T05:26:30.955Z,23.53
2017-08-03T05:28:56.736Z,23.59
2017-08-03T05:31:22.536Z,23.54
2017-08-03T05:33:48.413Z,23.39
2017-08-03T05:36:14.246Z,23.49
2017-08-03T05:38:40.060Z,23.60
2017-08-03T05:41:06.007Z,23.50
2017-08-03T05:43:31.845Z,23.41
2017-08-03T05:45:57.680Z,23.53
2017-08-03T05:48:23.484Z,23.59
2017-08-03T05:50:49.357Z,23.69
2017-08-03T05:53:15.148Z,23.73
2017-08-03T05:55:40.946Z,23.76
2017-08-03T05:58:06.789Z,23.76
2017-08-03T06:00:32.611Z,23.81
2017-08-03T06:02:58.416Z,23.95
2017-08-03T06:05:24.232Z,23.98
2017-08-03T06:07:50.054Z,23.98
2017-08-03T06:10:16.745Z,23.83
2017-08-03T06:12:42.556Z,23.83
2017-08-03T06:15:08.394Z,23.75
2017-08-03T06:17:34.241Z,23.67
2017-08-03T06:20:00.051Z,23.63
2017-08-03T06:22:26.053Z,23.56
2017-08-03T06:24:51.894Z,23.53
2017-08-03T06:27:17.707Z,23.45
2017-08-03T06:29:43.529Z,23.47
2017-08-03T06:32:09.363Z,23.34
2017-08-03T06:34:35.260Z,23.31
2017-08-03T06:37:01.090Z,23.27
2017-08-03T06:39:26.942Z,23.23
2017-08-03T06:41:52.749Z,23.22
2017-08-03T06:44:18.966Z,23.21
2017-08-03T06:46:44.869Z,23.27
2017-08-03T06:49:10.680Z,23.38
2017-08-03T06:51:36.513Z,23.39
2017-08-03T06:54:02.338Z,23.47
2017-08-03T06:56:28.279Z,23.41
2017-08-03T06:58:54.121Z,23.47
2017-08-03T07:01:19.966Z,23.56
2017-08-03T07:03:45.769Z,23.53
2017-08-03T07:06:11.620Z,23.45
2017-08-03T07:08:37.469Z,23.53
2017-08-03T07:11:03.407Z,23.53
2017-08-03T07:13:29.202Z,23.48
2017-08-03T07:15:55.059Z,23.43
2017-08-03T07:18:20.945Z,23.48
2017-08-03T07:20:46.922Z,23.56
2017-08-03T07:23:12.770Z,23.65
2017-08-03T07:25:38.769Z,23.58
2017-08-03T07:28:04.588Z,23.59
2017-08-03T07:30:30.450Z,23.74
2017-08-03T07:32:56.365Z,23.84
2017-08-03T07:35:22.272Z,23.63
2017-08-03T07:37:48.133Z,23.82
2017-08-03T07:40:14.025Z,23.57
2017-08-03T07:42:39.849Z,23.86
2017-08-03T07:45:05.702Z,23.66
2017-08-03T07:47:31.909Z,23.67
2017-08-03T07:49:57.721Z,23.86
2017-08-03T07:52:23.498Z,23.89
2017-08-03T07:54:49.456Z,23.95
2017-08-03T07:57:15.278Z,24.15
2017-08-03T07:59:41.188Z,24.40
2017-08-03T08:02:07.035Z,24.26
2017-08-03T08:04:32.862Z,23.99
2017-08-03T08:06:58.761Z,24.24
2017-08-03T08:09:24.831Z,24.46
2017-08-03T08:11:50.774Z,24.69
2017-08-03T08:14:16.950Z,24.84
2017-08-03T08:16:43.144Z,25.00
2017-08-03T08:19:09.096Z,25.14
2017-08-03T08:21:35.046Z,25.36
2017-08-03T08:24:00.965Z,25.34
2017-08-03T08:26:26.871Z,25.32
2017-08-03T08:28:52.719Z,25.22
2017-08-03T08:31:18.584Z,25.36
2017-08-03T08:33:44.495Z,25.44
2017-08-03T08:36:10.314Z,25.37
2017-08-03T08:38:36.364Z,25.35
2017-08-03T08:41:02.180Z,25.48
2017-08-03T08:43:28.004Z,25.64
2017-08-03T08:45:53.876Z,25.85
2017-08-03T08:48:19.776Z,25.97
2017-08-03T08:50:45.639Z,26.13
2017-08-03T08:53:11.458Z,26.54
2017-08-03T08:55:37.343Z,26.61
2017-08-03T08:58:03.186Z,26.65
2017-08-03T09:00:29.105Z,26.52
2017-08-03T09:02:54.926Z,26.46
2017-08-03T09:05:20.779Z,26.88
2017-08-03T09:07:46.594Z,27.15
2017-08-03T09:10:12.408Z,27.15
2017-08-03T09:12:38.272Z,27.47
2017-08-03T09:15:04.080Z,27.65
2017-08-03T09:17:29.875Z,27.73
2017-08-03T09:19:55.724Z,27.88
2017-08-03T09:22:21.525Z,28.11
2017-08-03T09:24:47.369Z,27.89
2017-08-03T09:27:13.242Z,27.70
2017-08-03T09:29:39.172Z,27.89
2017-08-03T09:32:05.014Z,28.08
2017-08-03T09:34:30.867Z,28.20
2017-08-03T09:36:56.687Z,28.13
2017-08-03T09:39:22.476Z,28.15
2017-08-03T09:41:48.304Z,28.08
2017-08-03T09:44:14.253Z,28.27
2017-08-03T09:46:40.468Z,28.30
2017-08-03T09:49:06.321Z,28.14
2017-08-03T09:51:32.148Z,28.09
2017-08-03T09:53:57.950Z,28.42
2017-08-03T09:56:23.789Z,28.57
2017-08-03T09:58:49.632Z,28.08
2017-08-03T10:01:15.455Z,28.18
2017-08-03T10:03:41.309Z,28.13
2017-08-03T10:06:07.218Z,28.07
2017-08-03T10:08:33.066Z,27.85
2017-08-03T10:10:58.934Z,27.75
2017-08-03T10:13:24.786Z,27.70
2017-08-03T10:15:50.736Z,27.67
2017-08-03T10:18:16.598Z,27.73
2017-08-03T10:20:42.411Z,27.69
2017-08-03T10:23:08.427Z,28.18
2017-08-03T10:25:34.247Z,28.35
2017-08-03T10:28:00.074Z,28.51
2017-08-03T10:30:25.939Z,28.80
2017-08-03T10:32:51.847Z,29.15
2017-08-03T10:35:17.696Z,29.07
2017-08-03T10:37:43.533Z,29.24
2017-08-03T10:40:09.352Z,29.19
2017-08-03T10:42:35.174Z,29.26
2017-08-03T10:45:00.975Z,29.83
2017-08-03T10:47:26.816Z,29.94
2017-08-03T10:49:52.644Z,29.81
2017-08-03T10:52:18.528Z,29.53
2017-08-03T10:54:44.327Z,29.62
2017-08-03T10:57:10.241Z,29.41
2017-08-03T10:59:36.082Z,29.74
2017-08-03T11:02:01.887Z,29.73
2017-08-03T11:04:27.754Z,29.92
2017-08-03T11:06:53.627Z,30.55
2017-08-03T11:09:19.535Z,31.23
2017-08-03T11:11:45.355Z,30.53
2017-08-03T11:14:11.231Z,30.82
2017-08-03T11:16:37.082Z,30.18
2017-08-03T11:19:02.916Z,29.94
2017-08-03T11:21:28.923Z,30.16
2017-08-03T11:23:54.794Z,29.91
2017-08-03T11:26:20.747Z,30.15
2017-08-03T11:28:46.594Z,29.61
2017-08-03T11:31:12.418Z,29.82
2017-08-03T11:33:38.383Z,29.72
2017-08-03T11:36:04.246Z,29.52
2017-08-03T11:38:30.176Z,29.47
2017-08-03T11:40:56.038Z,29.98
2017-08-03T11:43:21.846Z,30.58
2017-08-03T11:45:47.754Z,30.41
2017-08-03T11:48:13.841Z,30.23
2017-08-03T11:50:39.746Z,30.07
2017-08-03T11:53:05.591Z,29.67
2017-08-03T11:55:31.494Z,29.89
2017-08-03T11:57:57.431Z,29.82
2017-08-03T12:00:23.428Z,29.97
2017-08-03T12:02:49.407Z,29.91
2017-08-03T12:05:15.365Z,29.70
2017-08-03T12:07:41.315Z,29.71
2017-08-03T12:10:07.355Z,29.72
2017-08-03T12:12:33.296Z,29.76
2017-08-03T12:14:59.151Z,29.27
2017-08-03T12:17:25.042Z,29.53
2017-08-03T12:19:51.061Z,29.64
2017-08-03T12:22:16.956Z,29.66
2017-08-03T12:24:42.897Z,29.75
2017-08-03T12:27:08.802Z,29.36
2017-08-03T12:29:34.646Z,29.39
2017-08-03T12:32:00.462Z,29.58
2017-08-03T12:34:26.378Z,29.44
2017-08-03T12:36:52.283Z,29.67
2017-08-03T12:39:18.099Z,29.80
2017-08-03T12:41:43.952Z,29.82
2017-08-03T12:44:09.757Z,29.42
2017-08-03T12:46:36.582Z,29.38
2017-08-03T12:49:02.464Z,29.79
2017-08-03T12:51:28.354Z,29.91
2017-08-03T12:53:54.259Z,30.32
2017-08-03T12:56:20.112Z,30.22
2017-08-03T12:58:45.962Z,30.36
2017-08-03T13:01:12.010Z,30.54
2017-08-03T13:03:37.879Z,30.28
2017-08-03T13:06:03.795Z,30.03
2017-08-03T13:08:29.724Z,29.92
2017-08-03T13:10:55.658Z,29.70
2017-08-03T13:13:21.855Z,29.49
2017-08-03T13:15:47.749Z,29.53
2017-08-03T13:18:13.714Z,29.63
2017-08-03T13:20:39.571Z,29.62
2017-08-03T13:23:05.508Z,29.62
2017-08-03T13:25:31.495Z,29.72
2017-08-03T13:27:57.326Z,29.91
2017-08-03T13:30:23.293Z,30.19
2017-08-03T13:32:49.232Z,30.00
2017-08-03T13:35:15.091Z,29.98
2017-08-03T13:37:40.908Z,29.89
2017-08-03T13:40:06.908Z,30.00
2017-08-03T13:42:32.782Z,30.14
2017-08-03T13:44:58.799Z,30.21
2017-08-03T13:47:24.786Z,30.54
2017-08-03T13:49:50.669Z,30.63
2017-08-03T13:52:16.599Z,30.18
2017-08-03T13:54:42.506Z,30.08
2017-08-03T13:57:08.416Z,29.81
2017-08-03T13:59:34.310Z,29.86
2017-08-03T14:02:00.336Z,30.04
2017-08-03T14:04:26.327Z,29.78
2017-08-03T14:06:52.221Z,29.84
2017-08-03T14:09:18.182Z,29.36
2017-08-03T14:11:44.020Z,29.74
2017-08-03T14:14:10.036Z,29.90
2017-08-03T14:16:36.003Z,29.97
2017-08-03T14:19:01.855Z,29.59
2017-08-03T14:21:27.930Z,29.55
2017-08-03T14:23:53.861Z,29.42
2017-08-03T14:26:19.687Z,29.27
2017-08-03T14:28:45.574Z,29.18
2017-08-03T14:31:11.495Z,29.34
2017-08-03T14:33:37.366Z,29.49
2017-08-03T14:36:03.255Z,29.54
2017-08-03T14:38:29.281Z,29.47
2017-08-03T14:40:55.205Z,29.33
2017-08-03T14:43:21.063Z,29.34
2017-08-03T14:45:47.081Z,29.82
2017-08-03T14:48:13.352Z,29.53
2017-08-03T14:50:39.176Z,29.40
2017-08-03T14:53:04.990Z,29.23
2017-08-03T14:55:30.866Z,29.91
2017-08-03T14:57:56.691Z,30.25
2017-08-03T15:00:22.545Z,30.03
2017-08-03T15:02:48.582Z,30.66
2017-08-03T15:05:14.589Z,31.34
2017-08-03T15:07:40.518Z,29.99
2017-08-03T15:10:06.456Z,30.09
2017-08-03T15:12:32.461Z,29.85
2017-08-03T15:14:59.474Z,30.00
2017-08-03T15:17:25.551Z,29.78
2017-08-03T15:19:51.553Z,30.72
2017-08-03T15:22:17.503Z,30.47
2017-08-03T15:24:43.401Z,30.04
2017-08-03T15:27:09.319Z,30.07
2017-08-03T15:29:35.339Z,29.60
2017-08-03T15:32:01.284Z,29.31
2017-08-03T15:34:27.132Z,29.17
2017-08-03T15:36:52.997Z,29.17
2017-08-03T15:39:18.888Z,29.63
2017-08-03T15:41:44.723Z,30.34
2017-08-03T15:44:10.777Z,29.59
2017-08-03T15:46:37.180Z,29.15
2017-08-03T15:49:03.125Z,29.13
2017-08-03T15:51:29.074Z,28.56
2017-08-03T15:53:55.018Z,28.48
2017-08-03T15:56:20.861Z,28.54
2017-08-03T15:58:46.708Z,28.52
2017-08-03T16:01:12.764Z,28.47
2017-08-03T16:03:38.695Z,28.16
2017-08-03T16:06:04.520Z,28.35
2017-08-03T16:08:30.389Z,28.25
2017-08-03T16:10:56.410Z,28.43
2017-08-03T16:13:22.328Z,28.51
2017-08-03T16:15:48.264Z,28.21
2017-08-03T16:18:14.189Z,28.08
2017-08-03T16:20:40.026Z,27.94
2017-08-03T16:23:05.940Z,28.04
2017-08-03T16:25:33.048Z,27.91
2017-08-03T16:27:58.886Z,28.06
2017-08-03T16:30:24.748Z,28.49
2017-08-03T16:32:50.559Z,28.98
2017-08-03T16:35:16.608Z,29.33
2017-08-03T16:37:42.474Z,29.42
2017-08-03T16:40:08.576Z,29.43
2017-08-03T16:42:34.415Z,29.57
2017-08-03T16:45:00.326Z,29.83
2017-08-03T16:47:26.287Z,29.51
2017-08-03T16:49:52.134Z,29.44
2017-08-03T16:52:17.996Z,29.59
2017-08-03T16:54:43.931Z,29.34
2017-08-03T16:57:09.811Z,29.52
2017-08-03T16:59:35.628Z,29.16
2017-08-03T17:02:01.418Z,29.31
2017-08-03T17:04:27.262Z,29.28
2017-08-03T17:06:53.065Z,29.18
2017-08-03T17:09:19.191Z,28.76
2017-08-03T17:11:45.070Z,28.68
2017-08-03T17:14:10.901Z,28.21
2017-08-03T17:16:36.778Z,28.02
2017-08-03T17:19:02.615Z,27.93
2017-08-03T17:21:28.517Z,27.99
2017-08-03T17:23:54.491Z,27.86
2017-08-03T17:26:20.472Z,27.97
2017-08-03T17:28:46.501Z,28.19
2017-08-03T17:31:12.525Z,28.00
2017-08-03T17:33:38.506Z,27.85
2017-08-03T17:36:04.393Z,27.84
2017-08-03T17:38:30.381Z,27.71
2017-08-03T17:40:56.402Z,27.60
2017-08-03T17:43:22.378Z,27.38
2017-08-03T17:45:48.267Z,27.27
2017-08-03T17:48:14.192Z,27.15
2017-08-03T17:50:40.096Z,27.14
2017-08-03T17:53:06.080Z,27.32
2017-08-03T17:55:31.897Z,27.37
2017-08-03T17:57:57.754Z,27.02
2017-08-03T18:00:23.767Z,26.93
2017-08-03T18:02:49.747Z,26.77
2017-08-03T18:05:15.573Z,26.68
2017-08-03T18:07:41.459Z,26.66
2017-08-03T18:10:07.430Z,26.43
2017-08-03T18:12:33.248Z,26.35
2017-08-03T18:14:59.226Z,26.37
2017-08-03T18:17:25.060Z,26.34
2017-08-03T18:19:50.914Z,26.39
2017-08-03T18:22:16.912Z,26.29
2017-08-03T18:24:42.757Z,26.42
2017-08-03T18:27:08.611Z,26.27
2017-08-03T18:29:34.586Z,26.26
2017-08-03T18:32:00.403Z,26.14
2017-08-03T18:34:26.243Z,26.11
2017-08-03T18:36:52.059Z,26.03
2017-08-03T18:39:18.139Z,25.69
2017-08-03T18:41:43.960Z,25.75
2017-08-03T18:44:09.891Z,25.54
2017-08-03T18:46:36.444Z,25.44
2017-08-03T18:49:02.412Z,25.33
2017-08-03T18:51:28.304Z,25.48
2017-08-03T18:53:54.196Z,25.55
2017-08-03T18:56:20.144Z,25.43
2017-08-03T18:58:45.979Z,25.12
2017-08-03T19:01:11.864Z,25.03
2017-08-03T19:03:37.702Z,25.07
2017-08-03T19:06:03.604Z,24.92
2017-08-03T19:08:29.448Z,25.01
2017-08-03T19:10:55.296Z,24.74
2017-08-03T19:13:21.130Z,24.61
2017-08-03T19:15:47.057Z,24.77
2017-08-03T19:18:13.005Z,24.67
2017-08-03T19:20:39.037Z,24.56
2017-08-03T19:23:04.870Z,24.48
2017-08-03T19:25:30.852Z,24.27
2017-08-03T19:27:56.777Z,24.24
2017-08-03T19:30:22.686Z,24.17
2017-08-03T19:32:48.515Z,24.18
2017-08-03T19:35:14.485Z,24.18
2017-08-03T19:37:40.320Z,24.16
2017-08-03T19:40:06.221Z,23.89
2017-08-03T19:42:32.180Z,23.94
2017-08-03T19:44:58.032Z,23.89
2017-08-03T19:47:23.905Z,23.95
2017-08-03T19:49:49.860Z,24.12
2017-08-03T19:52:15.757Z,24.20
2017-08-03T19:54:41.784Z,24.21
2017-08-03T19:57:08.577Z,24.03
2017-08-03T19:59:34.424Z,23.89
2017-08-03T20:02:00.383Z,23.93
2017-08-03T20:04:26.228Z,23.97
2017-08-03T20:07:13.045Z,24.07
2017-08-03T20:09:59.808Z,24.04
2017-08-03T20:12:25.678Z,24.00
2017-08-03T20:14:51.590Z,24.02
2017-08-03T20:17:17.476Z,23.99
2017-08-03T20:19:43.359Z,23.96
2017-08-03T20:22:09.289Z,23.95
2017-08-03T20:24:35.232Z,23.88
2017-08-03T20:27:01.127Z,23.66
2017-08-03T20:29:27.032Z,23.49
2017-08-03T20:31:52.987Z,23.56
2017-08-03T20:34:18.887Z,23.76
2017-08-03T20:36:44.832Z,23.72
2017-08-03T20:39:10.709Z,23.72
2017-08-03T20:41:36.687Z,23.75
2017-08-03T20:44:02.563Z,23.46
2017-08-03T20:46:28.542Z,23.67
2017-08-03T20:48:54.371Z,23.73
2017-08-03T20:51:20.471Z,23.71
2017-08-03T20:53:46.367Z,23.76
2017-08-03T20:56:12.285Z,23.59
2017-08-03T20:58:38.275Z,23.61
2017-08-03T21:01:04.161Z,23.39
2017-08-03T21:03:30.060Z,23.41
2017-08-03T21:05:56.588Z,23.43
2017-08-03T21:08:22.529Z,23.45
2017-08-03T21:10:48.392Z,23.29
2017-08-03T21:13:14.495Z,23.22
2017-08-03T21:15:40.493Z,23.27
2017-08-03T21:18:06.421Z,23.17
2017-08-03T21:20:32.271Z,23.07
2017-08-03T21:22:58.364Z,23.15
2017-08-03T21:25:24.393Z,22.89
2017-08-03T21:27:50.324Z,22.85
2017-08-03T21:30:16.557Z,22.84
2017-08-03T21:32:42.609Z,22.94
2017-08-03T21:35:08.669Z,22.85
2017-08-03T21:37:34.589Z,22.93
2017-08-03T21:40:00.446Z,22.90
2017-08-03T21:42:26.325Z,22.96
2017-08-03T21:44:52.258Z,22.89
2017-08-03T21:47:18.148Z,22.87
2017-08-03T21:49:43.995Z,22.86
2017-08-03T21:52:09.848Z,22.76
2017-08-03T21:54:35.707Z,22.78
2017-08-03T21:57:01.672Z,22.79
2017-08-03T21:59:27.611Z,22.57
2017-08-03T22:01:53.502Z,22.64
2017-08-03T22:04:19.372Z,22.70
2017-08-03T22:06:45.319Z,22.43
2017-08-03T22:09:11.175Z,22.37
2017-08-03T22:11:37.000Z,22.34
2017-08-03T22:14:03.139Z,22.27
2017-08-03T22:16:29.078Z,22.25
2017-08-03T22:18:54.900Z,21.99
2017-08-03T22:21:20.771Z,22.12
2017-08-03T22:26:13.504Z,22.13
2017-08-03T22:28:39.396Z,22.02
2017-08-03T22:31:05.243Z,21.96
2017-08-03T22:33:31.162Z,21.79
2017-08-03T22:35:57.023Z,21.96
2017-08-03T22:38:22.903Z,21.89
2017-08-03T22:40:48.812Z,21.98
2017-08-03T22:43:14.644Z,22.03
2017-08-03T22:45:40.572Z,22.02
2017-08-03T22:48:06.474Z,21.78
2017-08-03T22:50:32.347Z,21.57
2017-08-03T22:52:58.175Z,21.53
2017-08-03T22:55:23.999Z,21.60
2017-08-03T22:57:49.872Z,21.76
2017-08-03T23:00:15.783Z,21.93
2017-08-03T23:02:42.407Z,22.08
2017-08-03T23:05:08.257Z,22.06
2017-08-03T23:07:34.112Z,21.61
2017-08-03T23:09:59.936Z,21.71
2017-08-03T23:12:25.809Z,21.61
2017-08-03T23:14:51.822Z,21.64
2017-08-03T23:17:17.730Z,21.68
2017-08-03T23:19:43.612Z,21.74
2017-08-03T23:22:09.443Z,21.92
2017-08-03T23:24:35.281Z,21.85
2017-08-03T23:27:01.145Z,21.70
2017-08-03T23:29:27.084Z,21.71
2017-08-03T23:31:52.934Z,21.65
2017-08-03T23:34:18.747Z,21.83
2017-08-03T23:36:44.607Z,22.06
2017-08-03T23:39:10.507Z,21.81
2017-08-03T23:41:36.980Z,21.90
2017-08-03T23:44:02.815Z,21.70
2017-08-03T23:46:28.650Z,21.66
2017-08-03T23:48:54.516Z,21.71
2017-08-03T23:51:20.423Z,21.69
2017-08-03T23:53:46.256Z,21.68
2017-08-03T23:56:12.117Z,21.80
2017-08-03T23:58:37.939Z,21.74
